Tiempo atmosférico en la estación meteorológica de Cedrillas, Teruel (1380 m.)



Fecha
DESCASC
Temp. máxima en grados centígrados (hora)
DESCASC
Temp. mínima en grados centígrados (hora)
DESCASC
Temp. media en grados centígrados
DESCASC
Racha de viento máxima en m/sg (hora)
DESCASC
Velocidad máxima media en intervalos de 10 minutos(hora)
DESCASC
Precipitaciones diarias en mm
DESCASC
Precipitaciones de 00:00 a 06:00 en mm
DESCASC
Precipitaciones de 06:00 a 12:00 en mm
DESCASC
Precipitaciones de 12:00 a 18:00 en mm
DESCASC
Precipitaciones de 18:00 a 24:00 en mm
DESCASC
23-06-2019 26.7 (15:30) 11.7 (07:10) 19.2 10.83 (19:40) 7.78 (20:10) 0 0 0 0 0
22-06-2019 23.5 (17:10) 7.8 (06:40) 15.7 9.17 (14:30) 6.67 (18:20) 0 0 0 0 0
21-06-2019 22.8 (14:30) 11.3 (05:40) 17 10 (18:20) 6.67 (15:00) 17.2 0 0 17.2 0
20-06-2019 24.2 (12:40) 8.9 (00:00) 16.6 11.67 (16:30) 7.5 (16:30) 0 0 0 0 0
19-06-2019 -- (--) -- (--) -- -- (--) -- (--) -- 0 0 -- 0
18-06-2019 26.6 (16:50) 14.3 (00:00) 20.5 12.78 (15:30) 7.78 (18:00) 0 0 0 0 0
17-06-2019 26.9 (16:50) 8.6 (00:00) 17.8 10.83 (20:40) 7.5 (19:00) 0 0 0 0 0
16-06-2019 22 (16:40) 4.6 (00:00) 13.3 11.11 (14:30) 6.67 (19:30) 0 0 0 0 0
15-06-2019 22.4 (20:10) 4.5 (00:00) 13.4 7.5 (12:20) 4.72 (20:40) 0 0 0 0 0
14-06-2019 22.5 (16:40) 9.8 (00:00) 16.2 12.78 (17:50) 8.33 (17:50) 0.6 0 0.6 0 0
13-06-2019 18.9 (15:40) 7.4 (00:00) 13.1 11.39 (12:10) 7.5 (12:30) 0 0 0 0 0
12-06-2019 18.3 (16:10) -1.3 (-00:0) 8.5 13.61 (14:30) 8.61 (22:50) 0 0 0 0 0
11-06-2019 10.3 (00:00) 3.4 (00:00) 6.9 11.39 (20:10) 7.5 (19:10) 0 0 0 0 0
10-06-2019 20.7 (18:30) 6.6 (00:00) 13.7 8.89 (21:00) 6.39 (20:40) 0 0 0 0 0
09-06-2019 24.7 (17:20) 9.3 (00:00) 17 9.72 (16:40) 6.11 (18:00) 0 0 0 0 0
08-06-2019 17.8 (17:10) 3.3 (00:00) 10.5 11.94 (14:10) 8.33 (15:40) 0 0 0 0 0
07-06-2019 20.5 (19:00) 7.6 (00:00) 14 12.78 (15:10) 7.5 (00:40) 0 0 0 0 0
06-06-2019 17.9 (16:10) 3.6 (00:00) 10.7 16.11 (19:00) 10 (15:40) 0 0 0 0 0
05-06-2019 14.6 (11:00) 6.4 (00:00) 10.5 16.67 (13:10) 11.94 (13:10) 0 0 0 0 0
04-06-2019 26.1 (16:00) 11 (00:00) 18.6 15 (17:20) 10 (16:50) 0 0 0 0 0
03-06-2019 25.6 (12:50) 10 (00:00) 17.8 13.61 (14:20) 7.78 (14:30) 0 0 0 0 0
02-06-2019 26.6 (14:20) 7 (00:00) 16.8 10.28 (18:00) 7.22 (18:00) 0 0 0 0 0
01-06-2019 25.7 (16:40) 5.6 (00:00) 15.7 10 (18:30) 6.94 (19:10) 0 0 0 0 0
31-05-2019 23.8 (16:00) 4.1 (00:00) 13.9 10 (18:50) 6.94 (18:50) 0 0 0 0 0
30-05-2019 22.6 (18:10) 2.4 (00:00) 12.5 7.5 (14:40) 4.72 (19:20) 0 0 0 0 0
29-05-2019 16 (17:40) 2.6 (00:00) 9.3 15 (10:00) 11.67 (10:00) 0 0 0 0 0
28-05-2019 16.1 (15:20) 4.8 (00:00) 10.5 12.5 (18:20) 8.06 (18:50) 0 0 0 0 0
27-05-2019 19.9 (17:00) 3.8 (00:00) 11.8 10.83 (20:20) 6.94 (20:10) 0 0 0 0 0
26-05-2019 15.3 (17:50) 4.3 (00:00) 9.8 9.17 (18:50) 6.39 (18:50) 0 0 0 0 0
25-05-2019 14.3 (17:40) 5.7 (00:00) 10 11.94 (09:40) 8.33 (09:30) 0 0 0 0 0

Gráficas

Temp. máximas Temp. mínimas Temp. medias Precipitaciones Rachas de viento máximas Velocidades máximas media en intervalos de 10 minutos

Datos horarios

Fecha y hora oficial Temperatura (ºC) Velocidad del viento (km/h) Dirección del viento Racha (km/h) Dirección de racha Precipitación (mm) Presión (hPa) Tendencia (hPa) Humedad (%)
2019-06-23 23:00:00 17.3 16 Sur 24 Sudeste 0 -- -- 56
2019-06-23 22:00:00 18.6 12 Sur 28 Sudeste 0 -- -- 51
2019-06-23 21:00:00 20.8 22 Sur 39 Sudeste 0 -- -- 43
2019-06-23 20:00:00 22.7 25 Sur 39 Sur 0 -- -- 41
2019-06-23 19:00:00 25.4 21 Sur 32 Sur 0 -- -- 38
2019-06-23 18:00:00 26.4 19 Sur 35 Sudeste 0 -- -- 37
2019-06-23 17:00:00 26.2 21 Sudeste 38 Sudeste 0 -- -- 34
2019-06-23 16:00:00 26.3 21 Sudeste 33 Sudeste 0 -- -- 32
2019-06-23 15:00:00 26.5 13 Sur 31 Este 0 -- -- 32
2019-06-23 14:00:00 25.3 19 Sur 35 Sur 0 -- -- 33
2019-06-23 13:00:00 24.7 17 Sur 29 Sur 0 -- -- 35
2019-06-23 12:00:00 23.1 17 Sur 31 Sur 0 -- -- 35
2019-06-23 11:00:00 22 17 Sur 29 Sur 0 -- -- 37
2019-06-23 10:00:00 20.2 14 Sur 22 Sur 0 -- -- 43
2019-06-23 09:00:00 17.9 12 Sur 19 Sur 0 -- -- 49
2019-06-23 08:00:00 15.4 9 Sur 13 Sur 0 -- -- 61
2019-06-23 07:00:00 12.1 5 Sudoeste 13 Sur 0 -- -- 80
2019-06-23 06:00:00 13.4 10 Sur 15 Sur 0 -- -- 73
2019-06-23 05:00:00 13.3 3 Oeste 14 Sur 0 -- -- 80
2019-06-23 04:00:00 14.8 11 Sur 18 Sudeste 0 -- -- 76
2019-06-23 03:00:00 15.1 12 Sur 20 Sudeste 0 -- -- 77
2019-06-23 02:00:00 14.8 10 Sur 19 Sur 0 -- -- 81
2019-06-23 01:00:00 14.1 9 Sur 18 Sur 0 -- -- 87
2019-06-23 00:00:00 14.7 14 Sur 23 Sur 0 -- -- 90
2019-06-22 23:00:00 15.4 17 Sur 26 Sur 0 -- -- 87
2019-06-22 22:00:00 16.9 20 Sur 29 Sur 0 -- -- 79
2019-06-22 21:00:00 19.1 17 Sur 28 Sur 0 -- -- 70
2019-06-22 20:00:00 19.7 19 Sur 30 Sudeste 0 -- -- 68
2019-06-22 19:00:00 21.8 21 Sudeste 33 Sudeste 0 -- -- 61
2019-06-22 18:00:00 22.9 18 Sur 28 Sur 0 -- -- 57
2019-06-22 17:00:00 23.2 14 Sur 27 Sudeste 0 -- -- 45
2019-06-22 16:00:00 22.5 13 Sur 24 Sur 0 -- -- 51
2019-06-22 15:00:00 22 10 Sur 33 Sudoeste 0 -- -- 52
2019-06-22 14:00:00 20.4 11 Sur 25 Sudeste 0 -- -- 62
2019-06-22 13:00:00 19.9 16 Sur 27 Sur 0 -- -- 63
2019-06-22 12:00:00 19.5 17 Sur 24 Sur 0 -- -- 65
2019-06-22 11:00:00 18 14 Sur 23 Sur 0 -- -- 70
2019-06-22 10:00:00 17 13 Sur 22 Sur 0 -- -- 71
2019-06-22 09:00:00 14.8 13 Sudeste 20 Sudeste 0 -- -- 81
2019-06-22 08:00:00 10.3 0 Calma 3 Oeste 0 -- -- 92
2019-06-22 07:00:00 8.3 0 Calma 3 Sudoeste 0 -- -- 99
2019-06-22 06:00:00 8 0 Calma 5 Este 0 -- -- 97
2019-06-22 05:00:00 8.4 0 Calma 6 Sudeste 0 -- -- 96
2019-06-22 04:00:00 8.8 3 Este 5 Este 0 -- -- 96
2019-06-22 03:00:00 9.5 4 Sudeste 8 Este 0 -- -- 94
2019-06-22 02:00:00 10.2 3 Este 5 Nordeste 0 -- -- 94
2019-06-22 01:00:00 11.1 6 Este 8 Este 0 -- -- 90
2019-06-22 00:00:00 12 3 Nordeste 8 Nordeste 0 -- -- 87
2019-06-21 23:00:00 13 6 Nordeste 10 Norte 0 -- -- 84
2019-06-21 22:00:00 14.3 6 Nordeste 24 Norte 0 -- -- 78
2019-06-21 21:00:00 16.4 15 Nordeste 26 Nordeste 0 -- -- 68
2019-06-21 20:00:00 16.5 18 Nordeste 31 Nordeste 0 -- -- 71
2019-06-21 19:00:00 17.3 21 Nordeste 36 Nordeste 0 -- -- 73
2019-06-21 18:00:00 16.2 19 Nordeste 32 Este 0.4 -- -- 81
2019-06-21 17:00:00 13.9 18 Este 35 Nordeste 16.8 -- -- 90
2019-06-21 16:00:00 19.3 14 Norte 31 Norte 0 -- -- 56
2019-06-21 15:00:00 19.5 24 Norte 35 Norte 0 -- -- 56
2019-06-21 14:00:00 22.5 16 Oeste 31 Oeste 0 -- -- 35
2019-06-21 13:00:00 20.5 11 Sudoeste 24 Oeste 0 -- -- 45
2019-06-21 12:00:00 19.9 8 Oeste 17 Oeste 0 -- -- 53
2019-06-21 11:00:00 18.4 6 Norte 15 Oeste 0 -- -- 65
2019-06-21 10:00:00 15 4 Nordeste 8 Norte 0 -- -- 84
2019-06-21 09:00:00 13 5 Noroeste 8 Noroeste 0 -- -- 97
2019-06-21 08:00:00 12.2 0 Calma 8 Este 0 -- -- 99
2019-06-21 07:00:00 11.7 2 Nordeste 6 Oeste 0 -- -- 97
2019-06-21 06:00:00 11.8 5 Sudoeste 9 Sudoeste 0 -- -- 97
2019-06-21 05:00:00 11.6 2 Nordeste 8 Sudeste 0 -- -- 89
2019-06-21 04:00:00 11.9 0 Calma 9 Este 0 -- -- 89
2019-06-21 03:00:00 12.4 3 Sudeste 6 Este 0 -- -- 90
2019-06-21 02:00:00 13 3 Este 5 Este 0 -- -- 89
2019-06-21 01:00:00 13.6 4 Sudoeste 13 Sur 0 -- -- 90
2019-06-21 00:00:00 14.5 5 Sur 13 Sur 0 -- -- 88
2019-06-20 23:00:00 15.1 12 Sur 15 Sur 0 -- -- 83
2019-06-20 22:00:00 16.6 5 Sur 8 Sur 0 -- -- 71
2019-06-20 21:00:00 17.3 9 Nordeste 17 Norte 0 -- -- 67
2019-06-20 20:00:00 18.4 12 Nordeste 28 Sudeste 0 -- -- 64
2019-06-20 19:00:00 21.8 21 Sur 39 Sur 0 -- -- 52
2019-06-20 18:00:00 22.3 24 Sur 41 Sur 0 -- -- 50
2019-06-20 17:00:00 22.9 22 Sur 42 Este 0 -- -- 52
2019-06-20 16:00:00 22.1 27 Sudeste 39 Sudeste 0 -- -- 52
2019-06-20 15:00:00 23.7 23 Sur 37 Sudeste 0 -- -- 45
2019-06-20 14:00:00 23.7 23 Sur 35 Sur 0 -- -- 40
2019-06-20 13:00:00 23.6 15 Sudeste 30 Este 0 -- -- 34
2019-06-20 12:00:00 23.6 12 Sur 28 Sur 0 -- -- 31
2019-06-20 11:00:00 21.5 5 Sudoeste 19 Oeste 0 -- -- 37
2019-06-20 10:00:00 20.3 4 Oeste 10 Oeste 0 -- -- 43
2019-06-20 09:00:00 17.2 4 Nordeste 9 Este 0 -- -- 59
2019-06-20 08:00:00 12.4 3 Este 5 Este 0 -- -- 73
2019-06-20 07:00:00 9.5 3 Este 5 Este 0 -- -- 78
2019-06-20 06:00:00 9.2 0 Calma 5 Este 0 -- -- 77
2019-06-20 05:00:00 9.7 4 Este 8 Este 0 -- -- 76
2019-06-20 04:00:00 9.8 6 Este 10 Este 0 -- -- 74
2019-06-20 03:00:00 10.9 4 Este 12 Este 0 -- -- 71
2019-06-20 02:00:00 12.1 3 Sudeste 12 Este 0 -- -- 64
2019-06-20 01:00:00 13.4 6 Este 9 Sudeste 0 -- -- 66
2019-06-20 00:00:00 16.1 3 Sudeste 14 Sur 0 -- -- 61
2019-06-19 23:00:00 17.8 0 Calma 15 Sur 0 -- -- 51
2019-06-19 22:00:00 19.9 11 Sur 22 Sudoeste 0 -- -- 42
2019-06-19 21:00:00 22.8 21 Sudoeste 28 Sudoeste 0 -- -- 28
2019-06-19 20:00:00 25 17 Sudoeste 32 Sudoeste 0 -- -- 24
2019-06-19 19:00:00 25.7 15 Sudoeste 31 Sudoeste 0 -- -- 22
2019-06-19 18:00:00 25.7 16 Sudoeste 39 Sudoeste 0 -- -- 24
2019-06-19 17:00:00 25.7 17 Sudoeste 39 Oeste 0 -- -- 23
2019-06-19 16:00:00 25.7 17 Sudoeste 37 Sudoeste 0 -- -- 24
2019-06-19 15:00:00 25.2 19 Sudoeste -- -- -- -- -- 27
2019-06-19 14:00:00 -- -- -- -- -- -- -- -- --
2019-06-19 13:00:00 22.4 14 Oeste 27 Oeste 0 -- -- 33
2019-06-19 12:00:00 20.8 14 Oeste 27 Oeste 0 -- -- 35
2019-06-19 11:00:00 19.8 9 Sudoeste 22 Oeste 0 -- -- 39
2019-06-19 10:00:00 18.8 8 Oeste 19 Oeste 0 -- -- 46
2019-06-19 09:00:00 16 3 Nordeste 5 Noroeste 0 -- -- 55
2019-06-19 08:00:00 10.5 2 Nordeste 11 Este 0 -- -- 63
2019-06-19 07:00:00 7.4 8 Este 13 Este 0 -- -- 65
2019-06-19 06:00:00 8.5 5 Este 14 Este 0 -- -- 58
2019-06-19 05:00:00 9.3 5 Este 12 Este 0 -- -- 59
2019-06-19 04:00:00 10.7 2 Noroeste 8 Este 0 -- -- 56
2019-06-19 03:00:00 12 0 Calma 6 Norte 0 -- -- 52
2019-06-19 02:00:00 13.6 8 Sur 16 Sur 0 -- -- 52
2019-06-19 01:00:00 14.2 10 Sur 15 Sur 0 -- -- 47
2019-06-19 00:00:00 14.8 11 Sur 21 Sur 0 -- -- 48
2019-06-18 23:00:00 15.7 15 Sur 23 Sur 0 -- -- 48
2019-06-18 22:00:00 17.4 18 Sur 27 Sur 0 -- -- 44
2019-06-18 21:00:00 20.4 18 Sur 30 Sur 0 -- -- 40
2019-06-18 20:00:00 22 23 Sur 35 Sudeste 0 -- -- 38
2019-06-18 19:00:00 23.3 23 Sudeste 40 Sudeste 0 -- -- 34
2019-06-18 18:00:00 24.3 28 Sudeste 40 Sur 0 -- -- 36
2019-06-18 17:00:00 26.2 23 Sur 42 Sudeste 0 -- -- 30
2019-06-18 16:00:00 25.9 25 Sur 46 Sudeste 0 -- -- 25
2019-06-18 15:00:00 25 21 Sudeste 40 Sur 0 -- -- 27
2019-06-18 14:00:00 24.9 23 Sur 40 Sur 0 -- -- 26
2019-06-18 13:00:00 24.6 18 Sur 32 Sur 0 -- -- 26
2019-06-18 12:00:00 23.4 16 Sur 25 Sudeste 0 -- -- 26
2019-06-18 11:00:00 22.4 15 Sur 23 Sur 0 -- -- 28
2019-06-18 10:00:00 20.8 15 Sur 25 Sur 0 -- -- 34
2019-06-18 09:00:00 17.9 12 Sur 18 Sur 0 -- -- 40
2019-06-18 08:00:00 15.8 8 Sur 16 Sur 0 -- -- 43
2019-06-18 07:00:00 14.8 13 Sur 17 Sur 0 -- -- 44
2019-06-18 06:00:00 14.7 12 Sur 15 Sur 0 -- -- 43
2019-06-18 05:00:00 15 13 Sur 17 Sur 0 -- -- 42
2019-06-18 04:00:00 14.7 9 Sur 14 Sur 0 -- -- 43
2019-06-18 03:00:00 14.7 12 Sur 16 Sur 0 -- -- 43
2019-06-18 02:00:00 14.6 13 Sur 19 Sur 0 -- -- 45
2019-06-18 01:00:00 14.9 9 Sur 19 Sur 0 -- -- 50
2019-06-18 00:00:00 15.1 11 Sur 22 Sur 0 -- -- 56
2019-06-17 23:00:00 15.4 17 Sur 30 Sur 0 -- -- 63
2019-06-17 22:00:00 16.7 20 Sur 33 Sur 0 -- -- 61
2019-06-17 21:00:00 19.8 19 Sur 39 Sudeste 0 -- -- 49
2019-06-17 20:00:00 21.9 24 Sudeste 36 Sudeste 0 -- -- 45
2019-06-17 19:00:00 23.3 27 Sudeste 38 Sudeste 0 -- -- 41
2019-06-17 18:00:00 24.5 23 Sudeste 39 Sudeste 0 -- -- 37
2019-06-17 17:00:00 26.2 12 Sur 29 Sudoeste 0 -- -- 31
2019-06-17 16:00:00 25.6 9 Sudoeste 24 Sudoeste 0 -- -- 24
2019-06-17 15:00:00 25.2 14 Sudoeste 28 Sudoeste 0 -- -- 24
2019-06-17 14:00:00 25 9 Sur 23 Este 0 -- -- 24
2019-06-17 13:00:00 23.5 10 Sudoeste 21 Oeste 0 -- -- 25
2019-06-17 12:00:00 22.9 5 Oeste 18 Oeste 0 -- -- 27
2019-06-17 11:00:00 21.9 6 Noroeste 13 Nordeste 0 -- -- 29
2019-06-17 10:00:00 20.2 4 Norte 9 Nordeste 0 -- -- 35
2019-06-17 09:00:00 14.9 0 Calma 4 Oeste 0 -- -- 55
2019-06-17 08:00:00 11.2 4 Nordeste 10 Este 0 -- -- 71
2019-06-17 07:00:00 8.8 6 Este 16 Este 0 -- -- 74
2019-06-17 06:00:00 8.8 9 Este 15 Este 0 -- -- 82
2019-06-17 05:00:00 10 7 Sudeste 14 Sur 0 -- -- 81
2019-06-17 04:00:00 10.9 2 Sudoeste 13 Sudeste 0 -- -- 79
2019-06-17 03:00:00 12 6 Sur 10 Sudeste 0 -- -- 74
2019-06-17 02:00:00 12.4 3 Sudoeste 12 Sur 0 -- -- 73
2019-06-17 01:00:00 12.9 6 Este 17 Sur 0 -- -- 72
2019-06-17 00:00:00 13.4 10 Sur 13 Sur 0 -- -- 72
2019-06-16 23:00:00 14.5 9 Sur 18 Sur 0 -- -- 68
2019-06-16 22:00:00 15.4 13 Sur 21 Sur 0 -- -- 66
2019-06-16 21:00:00 16.5 15 Sur 27 Sur 0 -- -- 60
2019-06-16 20:00:00 17.8 15 Sur 35 Sur 0 -- -- 59
2019-06-16 19:00:00 20.2 17 Sur 34 Sur 0 -- -- 44
2019-06-16 18:00:00 20.4 15 Sur 27 Sur 0 -- -- 42
2019-06-16 17:00:00 21.2 17 Sur 28 Sur 0 -- -- 40
2019-06-16 16:00:00 21.4 13 Sur 29 Sudeste 0 -- -- 40
2019-06-16 15:00:00 21.7 14 Sur 40 Sur 0 -- -- 38
2019-06-16 14:00:00 20.6 19 Sur 30 Sur 0 -- -- 41
2019-06-16 13:00:00 20.6 16 Sur 31 Sur 0 -- -- 36
2019-06-16 12:00:00 19.1 21 Sudeste 31 Sudeste 0 -- -- 37
2019-06-16 11:00:00 18.1 17 Sur 30 Sudeste 0 -- -- 40
2019-06-16 10:00:00 16.3 16 Sur 27 Sur 0 -- -- 41
2019-06-16 09:00:00 14.3 13 Sudeste 19 Sudeste 0 -- -- 47
2019-06-16 08:00:00 7.6 3 Sudoeste 7 Sudoeste 0 -- -- 75
2019-06-16 07:00:00 5.2 0 Calma 5 Sudoeste 0 -- -- 84
2019-06-16 06:00:00 5 2 Sudoeste 4 Este 0 -- -- 84
2019-06-16 05:00:00 6 0 Calma 5 Este 0 -- -- 81
2019-06-16 04:00:00 6.5 4 Este 5 Nordeste 0 -- -- 80
2019-06-16 03:00:00 7.8 0 Calma 7 Sudeste 0 -- -- 74
2019-06-16 02:00:00 8.9 0 Calma 9 Sudeste 0 -- -- 73
2019-06-16 01:00:00 10.1 5 Sudeste 9 Este 0 -- -- 69
2019-06-16 00:00:00 11.6 6 Este 14 Este 0 -- -- 63
2019-06-15 23:00:00 14.3 3 Nordeste 14 Nordeste 0 -- -- 55
2019-06-15 22:00:00 16.1 6 Sur 24 Sur 0 -- -- 50
2019-06-15 21:00:00 18.8 13 Sur 25 Sudeste 0 -- -- 41
2019-06-15 20:00:00 22.2 8 Norte 23 Noroeste 0 -- -- 25
2019-06-15 19:00:00 22.1 11 Noroeste 24 Noroeste 0 -- -- 26
2019-06-15 18:00:00 21.7 16 Oeste 24 Oeste 0 -- -- 25
2019-06-15 17:00:00 21.6 16 Oeste 26 Oeste 0 -- -- 24
2019-06-15 16:00:00 20.3 11 Oeste 21 Oeste 0 -- -- 26
2019-06-15 15:00:00 19.3 9 Oeste 19 Noroeste 0 -- -- 28
2019-06-15 14:00:00 17.9 10 Nordeste 20 Norte 0 -- -- 33
2019-06-15 13:00:00 16.7 10 Noroeste 27 Oeste 0 -- -- 34
2019-06-15 12:00:00 15.8 12 Noroeste 24 Oeste 0 -- -- 36
2019-06-15 11:00:00 14.5 12 Norte 22 Noroeste 0 -- -- 43
2019-06-15 10:00:00 13 11 Norte 24 Noroeste 0 -- -- 49
2019-06-15 09:00:00 11.4 15 Noroeste 23 Noroeste 0 -- -- 50
2019-06-15 08:00:00 7 3 Este 9 Este 0 -- -- 69
2019-06-15 07:00:00 5 6 Sudeste 13 Este 0 -- -- 69
2019-06-15 06:00:00 5.3 6 Este 10 Este 0 -- -- 65
2019-06-15 05:00:00 6.3 6 Este 11 Este 0 -- -- 61
2019-06-15 04:00:00 8.5 4 Sudoeste 16 Sudoeste 0 -- -- 56
2019-06-15 03:00:00 10.5 5 Sudoeste 14 Sur 0 -- -- 46
2019-06-15 02:00:00 11.7 7 Sur 13 Sur 0 -- -- 44
2019-06-15 01:00:00 13.1 10 Sur 20 Sur 0 -- -- 41
2019-06-15 00:00:00 13.9 12 Sur 21 Sudoeste 0 -- -- 39
2019-06-14 23:00:00 15.4 16 Sudoeste 27 Sudoeste 0 -- -- 34
2019-06-14 22:00:00 16.8 20 Sudoeste 33 Sudoeste 0 -- -- 32
2019-06-14 21:00:00 19.4 24 Sudoeste 39 Sudoeste 0 -- -- 28
2019-06-14 20:00:00 20.8 25 Sudoeste 41 Sur 0 -- -- 26
2019-06-14 19:00:00 21.6 23 Sudoeste 44 Sudoeste 0 -- -- 27
2019-06-14 18:00:00 22.1 27 Sudoeste 46 Sudoeste 0 -- -- 25
2019-06-14 17:00:00 22 26 Sudoeste 42 Sur 0 -- -- 27
2019-06-14 16:00:00 21.7 21 Sur 37 Sudoeste 0 -- -- 36
2019-06-14 15:00:00 20.3 15 Oeste 31 Sudoeste 0 -- -- 50
2019-06-14 14:00:00 19 15 Oeste 26 Sudoeste 0 -- -- 56
2019-06-14 13:00:00 18 8 Oeste 17 Oeste 0 -- -- 60
2019-06-14 12:00:00 15.6 7 Sudoeste 20 Sudoeste 0 -- -- 71
2019-06-14 11:00:00 14.6 13 Sudoeste 31 Sudoeste 0 -- -- 79
2019-06-14 10:00:00 14.2 10 Sur 22 Sudoeste 0 -- -- 82
2019-06-14 09:00:00 12.9 8 Sur 19 Nordeste 0.2 -- -- 84
2019-06-14 08:00:00 11.5 7 Oeste 21 Sudeste 0.4 -- -- 91
2019-06-14 07:00:00 10.5 2 Este 12 Sudeste 0 -- -- 92
2019-06-14 06:00:00 10.1 5 Este 15 Este 0 -- -- 91
2019-06-14 05:00:00 10 3 Nordeste 5 Norte 0 -- -- 92
2019-06-14 04:00:00 10.1 2 Nordeste 10 Este 0 -- -- 94
2019-06-14 03:00:00 10.7 2 Norte 8 Sur 0 -- -- 96
2019-06-14 02:00:00 11.2 6 Sudoeste 11 Sudeste 0 -- -- 96
2019-06-14 01:00:00 10.9 8 Sudoeste 14 Sur 0 -- -- 96
2019-06-14 00:00:00 11.4 5 Sur 17 Sur 0 -- -- 93
2019-06-13 23:00:00 12.2 9 Sudeste 23 Sur 0 -- -- 91
2019-06-13 22:00:00 12.3 14 Sur 26 Sur 0 -- -- 89
2019-06-13 21:00:00 13.9 13 Sur 28 Sur 0 -- -- 80
2019-06-13 20:00:00 16.1 19 Sudeste 31 Sudeste 0 -- -- 70
2019-06-13 19:00:00 17.3 15 Sudeste 24 Sur 0 -- -- 63
2019-06-13 18:00:00 18 15 Sur 31 Sur 0 -- -- 58
2019-06-13 17:00:00 18.8 19 Sur 31 Sudeste 0 -- -- 53
2019-06-13 16:00:00 18.7 17 Sudeste 30 Sudeste 0 -- -- 52
2019-06-13 15:00:00 18 19 Sudeste 34 Sur 0 -- -- 50
2019-06-13 14:00:00 17.2 23 Sur 35 Sudeste 0 -- -- 54
2019-06-13 13:00:00 15.9 18 Sur 41 Sudeste 0 -- -- 60
2019-06-13 12:00:00 15.2 24 Sudeste 35 Sudeste 0 -- -- 63
2019-06-13 11:00:00 13 24 Sudeste 38 Sudeste 0 -- -- 74
2019-06-13 10:00:00 12.4 24 Sudeste 38 Sudeste 0 -- -- 79
2019-06-13 09:00:00 12.1 16 Sur 40 Sudeste 0 -- -- 84
2019-06-13 08:00:00 11 14 Sudeste 36 Sur 0 -- -- 87
2019-06-13 07:00:00 9.9 22 Sur 35 Sudeste 0 -- -- 90
2019-06-13 06:00:00 9.5 22 Sudeste 36 Sudeste 0 -- -- 88
2019-06-13 05:00:00 9.4 20 Sudeste 39 Sudeste 0 -- -- 92
2019-06-13 04:00:00 9 20 Sudeste 34 Sudeste 0 -- -- 95
2019-06-13 03:00:00 8.9 21 Sudeste 34 Sudeste 0 -- -- 91
2019-06-13 02:00:00 8.2 20 Sur 35 Sur 0 -- -- 80
2019-06-13 01:00:00 7.5 20 Sur 33 Sur 0 -- -- 60
2019-06-13 00:00:00 7.6 22 Sur 39 Sur 0 -- -- 64
2019-06-12 23:00:00 8.1 29 Sur 41 Sur 0 -- -- 72
2019-06-12 22:00:00 9.1 26 Sur 38 Sur 0 -- -- 71
2019-06-12 21:00:00 11.7 25 Sudeste 39 Sudeste 0 -- -- 62
2019-06-12 20:00:00 14.1 24 Sudeste 42 Sudeste 0 -- -- 56
2019-06-12 19:00:00 15.2 26 Sudeste 40 Sudeste 0 -- -- 51
2019-06-12 18:00:00 16.7 25 Sudeste 37 Este 0 -- -- 43
2019-06-12 17:00:00 15.9 23 Sudeste 35 Sur 0 -- -- 42
2019-06-12 16:00:00 17.8 16 Sur 32 Sudeste 0 -- -- 32
2019-06-12 15:00:00 16.3 7 Sudoeste 49 Sudeste 0 -- -- 33
2019-06-12 14:00:00 15.8 13 Sudeste 25 Sur 0 -- -- 32
2019-06-12 13:00:00 14.4 11 Sur 26 Sudeste 0 -- -- 35
2019-06-12 12:00:00 13.2 13 Sudeste 22 Sudeste 0 -- -- 40
2019-06-12 11:00:00 12 10 Sudeste 21 Sur 0 -- -- 45
2019-06-12 10:00:00 10.2 7 Sur 17 Sudeste 0 -- -- 50
2019-06-12 09:00:00 7.5 3 Este 6 Sudeste 0 -- -- 72
2019-06-12 08:00:00 2.6 3 Este 7 Nordeste 0 -- -- 88
2019-06-12 07:00:00 -0.6 8 Este 9 Este 0 -- -- 94
2019-06-12 06:00:00 -1.1 3 Oeste 12 Este 0 -- -- 92
2019-06-12 05:00:00 -0.4 6 Nordeste 10 Norte 0 -- -- 96
2019-06-12 04:00:00 0 6 Este 9 Este 0 -- -- 92
2019-06-12 03:00:00 1 3 Norte 8 Nordeste 0 -- -- 92
2019-06-12 02:00:00 1.6 5 Norte 11 Nordeste 0 -- -- 90
2019-06-12 01:00:00 2.4 10 Nordeste 16 Norte 0 -- -- 88
2019-06-12 00:00:00 3.6 12 Norte 19 Noroeste 0 -- -- 81
2019-06-11 23:00:00 4.5 9 Norte 17 Norte 0 -- -- 76
2019-06-11 22:00:00 6.6 11 Norte 22 Norte 0 -- -- 67
2019-06-11 21:00:00 9.6 15 Norte 41 Noroeste 0 -- -- 53
2019-06-11 20:00:00 10.1 20 Noroeste 38 Noroeste 0 -- -- 52
2019-06-11 19:00:00 10.3 24 Norte 37 Noroeste 0 -- -- 54
2019-06-11 18:00:00 8 15 Norte 30 Norte 0 -- -- 71
2019-06-11 17:00:00 5.9 19 Norte 33 Norte 0 -- -- 81
2019-06-11 16:00:00 6.3 20 Norte 32 Norte 0 -- -- 78
2019-06-11 15:00:00 5.3 21 Norte 30 Norte 0 -- -- 86
2019-06-11 14:00:00 6.2 17 Norte 30 Norte 0 -- -- 85
2019-06-11 13:00:00 7.4 18 Norte 31 Norte 0 -- -- 77
2019-06-11 12:00:00 9.3 15 Norte 27 Norte 0 -- -- 69
2019-06-11 11:00:00 9 8 Norte 19 Norte 0 -- -- 68
2019-06-11 10:00:00 7.8 13 Norte 19 Norte 0 -- -- 68
2019-06-11 09:00:00 7.1 9 Noroeste 14 Norte 0 -- -- 69
2019-06-11 08:00:00 7 9 Noroeste 15 Norte 0 -- -- 70
2019-06-11 07:00:00 6.7 9 Norte 17 Norte 0 -- -- 70
2019-06-11 06:00:00 6.9 6 Norte 15 Norte 0 -- -- 76
2019-06-11 05:00:00 6 3 Norte 5 Este 0 -- -- 84
2019-06-11 04:00:00 5.6 2 Este 7 Este 0 -- -- 83
2019-06-11 03:00:00 6.6 3 Este 9 Noroeste 0 -- -- 78
2019-06-11 02:00:00 7.7 4 Noroeste 12 Norte 0 -- -- 75
2019-06-11 01:00:00 9.1 4 Oeste 12 Norte 0 -- -- 70
2019-06-11 00:00:00 10.3 7 Norte 16 Norte 0 -- -- 66
2019-06-10 23:00:00 11.6 6 Nordeste 20 Norte 0 -- -- 64
2019-06-10 22:00:00 12.7 5 Este 28 Este 0 -- -- 71
2019-06-10 21:00:00 13.7 21 Este 32 Este 0 -- -- 68
2019-06-10 20:00:00 16.3 14 Norte 30 Norte 0 -- -- 50
2019-06-10 19:00:00 19.3 19 Noroeste 30 Oeste 0 -- -- 36
2019-06-10 18:00:00 19.5 14 Noroeste 25 Oeste 0 -- -- 35
2019-06-10 17:00:00 19.9 9 Noroeste 25 Oeste 0 -- -- 34
2019-06-10 16:00:00 20.2 6 Noroeste 26 Oeste 0 -- -- 34
2019-06-10 15:00:00 19.5 11 Oeste 25 Oeste 0 -- -- 33
2019-06-10 14:00:00 18.8 9 Noroeste 26 Oeste 0 -- -- 36
2019-06-10 13:00:00 17.6 13 Noroeste 28 Oeste 0 -- -- 38
2019-06-10 12:00:00 16.7 12 Norte 26 Norte 0 -- -- 47
2019-06-10 11:00:00 14.6 13 Norte 22 Norte 0 -- -- 60
2019-06-10 10:00:00 13.1 11 Norte 20 Norte 0 -- -- 69
2019-06-10 09:00:00 12.9 3 Norte 10 Norte 0 -- -- 71
2019-06-10 08:00:00 9.2 5 Este 14 Nordeste 0 -- -- 86
2019-06-10 07:00:00 7.1 5 Norte 14 Norte 0 -- -- 93
2019-06-10 06:00:00 7.3 8 Nordeste 10 Nordeste 0 -- -- 89
2019-06-10 05:00:00 8.1 4 Nordeste 6 Nordeste 0 -- -- 86
2019-06-10 04:00:00 8.4 5 Este 9 Este 0 -- -- 82
2019-06-10 03:00:00 9.5 5 Este 8 Este 0 -- -- 80
2019-06-10 02:00:00 11 5 Norte 15 Norte 0 -- -- 75
2019-06-10 01:00:00 12.7 9 Norte 17 Norte 0 -- -- 68
2019-06-10 00:00:00 14.1 5 Sudeste 8 Este 0 -- -- 55
2019-06-09 23:00:00 15.9 5 Sudoeste 14 Sur 0 -- -- 55
2019-06-09 22:00:00 17.2 8 Sudoeste 23 Sur 0 -- -- 48
2019-06-09 21:00:00 19.2 3 Este 12 Nordeste 0 -- -- 43
2019-06-09 20:00:00 20.4 7 Norte 21 Nordeste 0 -- -- 40
2019-06-09 19:00:00 21.6 12 Norte 32 Oeste 0 -- -- 36
2019-06-09 18:00:00 23.9 22 Sudoeste 33 Sudoeste 0 -- -- 25
2019-06-09 17:00:00 23.2 17 Oeste 35 Sur 0 -- -- 27
2019-06-09 16:00:00 23.3 14 Sudoeste 33 Sudoeste 0 -- -- 29
2019-06-09 15:00:00 23.3 10 Sur 32 Sudoeste 0 -- -- 29
2019-06-09 14:00:00 21.9 13 Sudoeste 26 Sudoeste 0 -- -- 32
2019-06-09 13:00:00 20.7 16 Oeste 27 Oeste 0 -- -- 35
2019-06-09 12:00:00 18.6 7 Sur 15 Sudoeste 0 -- -- 48
2019-06-09 11:00:00 16.5 6 Sudeste 16 Sur 0 -- -- 53
2019-06-09 10:00:00 15 10 Sur 19 Sur 0 -- -- 60
2019-06-09 09:00:00 12.3 3 Sur 8 Sudeste 0 -- -- 60
2019-06-09 08:00:00 10.5 7 Sur 16 Sur 0 -- -- 55
2019-06-09 07:00:00 9.7 13 Sur 16 Sur 0 -- -- 57
2019-06-09 06:00:00 10 8 Sur 26 Sur 0 -- -- 58
2019-06-09 05:00:00 10 15 Sur 22 Sur 0 -- -- 60
2019-06-09 04:00:00 9.9 15 Sur 23 Sur 0 -- -- 61
2019-06-09 03:00:00 9.7 10 Sur 19 Sur 0 -- -- 65
2019-06-09 02:00:00 9.6 11 Sur 16 Sur 0 -- -- 68
2019-06-09 01:00:00 9.5 11 Sur 16 Sur 0 -- -- 71
2019-06-09 00:00:00 9.8 10 Sudeste 21 Sur 0 -- -- 71
2019-06-08 23:00:00 10.6 13 Sudeste 28 Sur 0 -- -- 65
2019-06-08 22:00:00 11.5 17 Sur 27 Sur 0 -- -- 56
2019-06-08 21:00:00 12.6 16 Sudeste 35 Sudeste 0 -- -- 55
2019-06-08 20:00:00 13.6 22 Sur 39 Sur 0 -- -- 55
2019-06-08 19:00:00 15 27 Sudeste 41 Sudeste 0 -- -- 53
2019-06-08 18:00:00 16.5 29 Sudeste 42 Sudeste 0 -- -- 50
2019-06-08 17:00:00 16.9 29 Sudeste 42 Sudeste 0 -- -- 49
2019-06-08 16:00:00 16.7 29 Sudeste 43 Sudeste 0 -- -- 53
2019-06-08 15:00:00 17.2 26 Sur 43 Sudeste 0 -- -- 54
2019-06-08 14:00:00 16.8 28 Sudeste 41 Este 0 -- -- 54
2019-06-08 13:00:00 16.7 23 Sur 40 Sur 0 -- -- 52
2019-06-08 12:00:00 15.3 23 Sur 38 Sur 0 -- -- 60
2019-06-08 11:00:00 14.1 22 Sur 34 Sudeste 0 -- -- 65
2019-06-08 10:00:00 12.3 19 Sudeste 27 Sudeste 0 -- -- 60
2019-06-08 09:00:00 10.9 14 Sur 22 Sur 0 -- -- 60
2019-06-08 08:00:00 5.8 4 Oeste 10 Sur 0 -- -- 67
2019-06-08 07:00:00 3.5 3 Este 6 Este 0 -- -- 74
2019-06-08 06:00:00 3.8 0 Calma 5 Este 0 -- -- 70
2019-06-08 05:00:00 4.5 3 Este 8 Este 0 -- -- 66
2019-06-08 04:00:00 5.4 0 Calma 6 Nordeste 0 -- -- 64
2019-06-08 03:00:00 6 3 Este 12 Este 0 -- -- 63
2019-06-08 02:00:00 7.8 5 Este 7 Este 0 -- -- 54
2019-06-08 01:00:00 9.6 5 Nordeste 9 Norte 0 -- -- 55
2019-06-08 00:00:00 10.6 5 Noroeste 12 Nordeste 0 -- -- 45
2019-06-07 23:00:00 11.2 11 Nordeste 15 Este 0 -- -- 43
2019-06-07 22:00:00 13.3 6 Nordeste 14 Norte 0 -- -- 42
2019-06-07 21:00:00 17.6 11 Norte 19 Norte 0 -- -- 33
2019-06-07 20:00:00 19.6 12 Sudoeste 22 Sudoeste 0 -- -- 17
2019-06-07 19:00:00 20.5 9 Noroeste 30 Sudoeste 0 -- -- 15
2019-06-07 18:00:00 20.3 9 Sudoeste 30 Sudoeste 0 -- -- 19
2019-06-07 17:00:00 19.4 13 Noroeste 37 Oeste 0 -- -- 19
2019-06-07 16:00:00 18.7 18 Oeste 46 Sudoeste 0 -- -- 21
2019-06-07 15:00:00 17.6 13 Oeste 30 Sudoeste 0 -- -- 28
2019-06-07 14:00:00 16.5 12 Sudoeste 35 Oeste 0 -- -- 34
2019-06-07 13:00:00 15.1 16 Oeste 39 Sudoeste 0 -- -- 40
2019-06-07 12:00:00 14.8 22 Oeste 33 Sudoeste 0 -- -- 52
2019-06-07 11:00:00 13.9 17 Sudoeste 35 Sudoeste 0 -- -- 60
2019-06-07 10:00:00 13 15 Sudoeste 28 Sudoeste 0 -- -- 65
2019-06-07 09:00:00 11.8 14 Sur 27 Sur 0 -- -- 68
2019-06-07 08:00:00 10.1 18 Sur 30 Sur 0 -- -- 72
2019-06-07 07:00:00 8.6 17 Sur 27 Sur 0 -- -- 76
2019-06-07 06:00:00 7.8 11 Sur 19 Sur 0 -- -- 87
2019-06-07 05:00:00 8 13 Sur 27 Sur 0 -- -- 96
2019-06-07 04:00:00 8.5 16 Sur 32 Sur 0 -- -- 95
2019-06-07 03:00:00 8.7 23 Sur 34 Sur 0 -- -- 94
2019-06-07 02:00:00 9 20 Sur 43 Sur 0 -- -- 92
2019-06-07 01:00:00 9.4 26 Sudeste 44 Sur 0 -- -- 89
2019-06-07 00:00:00 9.6 26 Sur 45 Este 0 -- -- 89
2019-06-06 23:00:00 9.7 25 Sudeste 45 Sudeste 0 -- -- 86
2019-06-06 22:00:00 10.6 22 Sudeste 43 Sudeste 0 -- -- 73
2019-06-06 21:00:00 12.5 30 Sudeste 52 Sudeste 0 -- -- 62
2019-06-06 20:00:00 14.1 31 Sudeste 49 Sudeste 0 -- -- 62
2019-06-06 19:00:00 15.1 34 Sudeste 58 Sudeste 0 -- -- 58
2019-06-06 18:00:00 16.2 35 Sudeste 54 Sudeste 0 -- -- 50
2019-06-06 17:00:00 15.7 32 Sudeste 49 Sudeste 0 -- -- 52
2019-06-06 16:00:00 17.6 31 Sur 49 Sudeste 0 -- -- 45
2019-06-06 15:00:00 16.9 28 Sudeste 45 Sudeste 0 -- -- 48
2019-06-06 14:00:00 15.1 24 Sudeste 41 Sudeste 0 -- -- 55
2019-06-06 13:00:00 14.8 29 Sudeste 47 Sur 0 -- -- 57
2019-06-06 12:00:00 14.7 24 Sur 40 Sur 0 -- -- 53
2019-06-06 11:00:00 13.5 21 Sur 33 Sur 0 -- -- 49
2019-06-06 10:00:00 12.5 19 Sur 29 Sur 0 -- -- 53
2019-06-06 09:00:00 10.4 13 Sur 23 Sudeste 0 -- -- 69
2019-06-06 08:00:00 8.5 14 Sur 21 Sur 0 -- -- 78
2019-06-06 07:00:00 6.2 9 Sur 15 Sur 0 -- -- 89
2019-06-06 06:00:00 5.9 10 Sur 17 Sur 0 -- -- 87
2019-06-06 05:00:00 6.2 9 Sur 14 Sur 0 -- -- 82
2019-06-06 04:00:00 5.8 10 Sur 18 Sur 0 -- -- 77
2019-06-06 03:00:00 3.8 0 Calma 8 Oeste 0 -- -- 82
2019-06-06 02:00:00 4.3 6 Sudeste 10 Este 0 -- -- 79
2019-06-06 01:00:00 5.1 3 Sudeste 10 Sudeste 0 -- -- 74
2019-06-06 00:00:00 6.4 5 Sudeste 9 Sudeste 0 -- -- 68
2019-06-05 23:00:00 7.8 6 Este 14 Noroeste 0 -- -- 65
2019-06-05 22:00:00 10.4 6 Noroeste 15 Noroeste 0 -- -- 52
2019-06-05 21:00:00 12.5 12 Noroeste 26 Noroeste 0 -- -- 46
2019-06-05 20:00:00 13.1 19 Noroeste 34 Noroeste 0 -- -- 43
2019-06-05 19:00:00 13.5 18 Noroeste 36 Noroeste 0 -- -- 46
2019-06-05 18:00:00 12.9 19 Noroeste 36 Oeste 0 -- -- 48
2019-06-05 17:00:00 12.9 24 Noroeste 43 Noroeste 0 -- -- 46
2019-06-05 16:00:00 13.4 29 Noroeste 51 Noroeste 0 -- -- 43
2019-06-05 15:00:00 12.4 32 Noroeste 59 Noroeste 0 -- -- 45
2019-06-05 14:00:00 12.1 34 Noroeste 60 Sudoeste 0 -- -- 50
2019-06-05 13:00:00 13.9 34 Oeste 54 Oeste 0 -- -- 34
2019-06-05 12:00:00 13.5 33 Oeste 45 Oeste 0 -- -- 44
2019-06-05 11:00:00 14.6 19 Sudoeste 37 Sudoeste 0 -- -- 49
2019-06-05 10:00:00 13 19 Sudoeste 35 Oeste 0 -- -- 63
2019-06-05 09:00:00 12.1 18 Sudoeste 33 Sudoeste 0 -- -- 73
2019-06-05 08:00:00 13 15 Sudoeste 22 Sur 0 -- -- 67
2019-06-05 07:00:00 11.5 9 Sur 16 Sur 0 -- -- 69
2019-06-05 06:00:00 11.6 7 Sudeste 19 Sur 0 -- -- 63
2019-06-05 05:00:00 12.2 13 Sur 18 Sur 0 -- -- 59
2019-06-05 04:00:00 12.2 8 Sudoeste 14 Sur 0 -- -- 54
2019-06-05 03:00:00 13.2 12 Sur 15 Sur 0 -- -- 49
2019-06-05 02:00:00 13.3 11 Sur 14 Sudoeste 0 -- -- 45
2019-06-05 01:00:00 13.5 7 Sur 11 Sur 0 -- -- 42
2019-06-05 00:00:00 14.5 7 Sudoeste 26 Sudeste 0 -- -- 49
2019-06-04 23:00:00 16.1 14 Sudeste 25 Sudeste 0 -- -- 46
2019-06-04 22:00:00 16.6 17 Sur 35 Sudeste 0 -- -- 51
2019-06-04 21:00:00 18.6 25 Sudeste 41 Sudeste 0 -- -- 58
2019-06-04 20:00:00 20.8 23 Sudeste 46 Sudeste 0 -- -- 46
2019-06-04 19:00:00 22.6 30 Sudeste 50 Sudeste 0 -- -- 45
2019-06-04 18:00:00 25.4 28 Sudoeste 54 Sudoeste 0 -- -- 23
2019-06-04 17:00:00 25.5 32 Sudoeste 50 Sudoeste 0 -- -- 21
2019-06-04 16:00:00 26.1 22 Sudoeste 54 Sudoeste 0 -- -- 25
2019-06-04 15:00:00 25.4 23 Sur 48 Sudoeste 0 -- -- 25
2019-06-04 14:00:00 25.6 23 Sur 44 Sudoeste 0 -- -- 26
2019-06-04 13:00:00 24.1 22 Sudoeste 43 Sudoeste 0 -- -- 30
2019-06-04 12:00:00 23.2 27 Sudoeste 41 Sudoeste 0 -- -- 27
2019-06-04 11:00:00 22.5 13 Sudoeste 22 Sudoeste 0 -- -- 30
2019-06-04 10:00:00 20.3 15 Sudoeste 26 Sudoeste 0 -- -- 37
2019-06-04 09:00:00 17.7 4 Sur 8 Sur 0 -- -- 47
2019-06-04 08:00:00 12.7 0 Calma 6 Sudoeste 0 -- -- 65
2019-06-04 07:00:00 11.3 0 Calma 10 Sur 0 -- -- 59
2019-06-04 06:00:00 11.9 5 Sudoeste 20 Sudeste 0 -- -- 58
2019-06-04 05:00:00 14.5 13 Sur 20 Sudeste 0 -- -- 48
2019-06-04 04:00:00 15.1 12 Sur 18 Sur 0 -- -- 46
2019-06-04 03:00:00 14.7 13 Sur 17 Sur 0 -- -- 46
2019-06-04 02:00:00 14.6 14 Sur 20 Sur 0 -- -- 48
2019-06-04 01:00:00 14.2 15 Sur 24 Sur 0 -- -- 54
2019-06-04 00:00:00 13.6 17 Sur 29 Sur 0 -- -- 59
2019-06-03 23:00:00 14 22 Sur 29 Sur 0 -- -- 59
2019-06-03 22:00:00 15.1 19 Sur 28 Sur 0 -- -- 59
2019-06-03 21:00:00 17.2 20 Sur 33 Sur 0 -- -- 53
2019-06-03 20:00:00 18.9 22 Sur 33 Sur 0 -- -- 49
2019-06-03 19:00:00 21.3 21 Sur 32 Sur 0 -- -- 45
2019-06-03 18:00:00 23.1 21 Sur 32 Sur 0 -- -- 38
2019-06-03 17:00:00 23.3 16 Sur 23 Sudeste 0 -- -- 38
2019-06-03 16:00:00 22 5 Este 22 Sudoeste 0 -- -- 48
2019-06-03 15:00:00 22.4 13 Sudeste 49 Sudoeste 0 -- -- 38
2019-06-03 14:00:00 24.2 10 Sur 27 Sur 0 -- -- 32
2019-06-03 13:00:00 25.4 15 Sur 27 Sur 0 -- -- 29
2019-06-03 12:00:00 24.8 14 Sur 25 Sudeste 0 -- -- 29
2019-06-03 11:00:00 23.1 15 Sur 23 Sur 0 -- -- 32
2019-06-03 10:00:00 20.9 12 Sur 20 Sur 0 -- -- 36
2019-06-03 09:00:00 16.7 13 Sur 20 Sur 0 -- -- 46
2019-06-03 08:00:00 12.8 0 Calma 6 Este 0 -- -- 62
2019-06-03 07:00:00 10.1 3 Oeste 11 Sur 0 -- -- 66
2019-06-03 06:00:00 10.7 0 Calma 5 Sudoeste 0 -- -- 61
2019-06-03 05:00:00 11.5 0 Calma 12 Sur 0 -- -- 58
2019-06-03 04:00:00 12.7 3 Este 13 Sur 0 -- -- 54
2019-06-03 03:00:00 13.5 11 Sur 15 Sur 0 -- -- 51
2019-06-03 02:00:00 13.8 12 Sur 17 Sur 0 -- -- 51
2019-06-03 01:00:00 14.5 12 Sur 19 Sudeste 0 -- -- 53
2019-06-03 00:00:00 13.9 14 Sur 18 Sur 0 -- -- 57
2019-06-02 23:00:00 14.5 13 Sur 19 Sur 0 -- -- 56
2019-06-02 22:00:00 15.8 12 Sur 19 Sur 0 -- -- 53
2019-06-02 21:00:00 18.8 12 Sur 31 Sur 0 -- -- 42
2019-06-02 20:00:00 21.4 19 Sur 36 Sudeste 0 -- -- 35
2019-06-02 19:00:00 22.6 21 Sur 36 Sur 0 -- -- 35
2019-06-02 18:00:00 23.9 26 Sur 37 Sur 0 -- -- 34
2019-06-02 17:00:00 25 20 Sur 32 Sur 0 -- -- 32
2019-06-02 16:00:00 24.8 18 Sudeste 29 Sur 0 -- -- 31
2019-06-02 15:00:00 24.9 8 Sudeste 23 Sudoeste 0 -- -- 31
2019-06-02 14:00:00 26.3 6 Oeste 16 Noroeste 0 -- -- 25
2019-06-02 13:00:00 24.9 6 Nordeste 15 Nordeste 0 -- -- 30
2019-06-02 12:00:00 23.8 7 Noroeste 16 Oeste 0 -- -- 30
2019-06-02 11:00:00 22.8 6 Nordeste 11 Nordeste 0 -- -- 35
2019-06-02 10:00:00 20.3 2 Oeste 6 Oeste 0 -- -- 43
2019-06-02 09:00:00 16.6 4 Nordeste 9 Este 0 -- -- 62
2019-06-02 08:00:00 9.9 3 Nordeste 11 Sudeste 0 -- -- 80
2019-06-02 07:00:00 7.5 4 Este 10 Este 0 -- -- 82
2019-06-02 06:00:00 7.2 6 Este 10 Este 0 -- -- 83
2019-06-02 05:00:00 7.7 4 Este 12 Este 0 -- -- 79
2019-06-02 04:00:00 8 6 Este 9 Sudeste 0 -- -- 79
2019-06-02 03:00:00 9.1 7 Sudeste 12 Nordeste 0 -- -- 75
2019-06-02 02:00:00 10.2 3 Este 8 Sudeste 0 -- -- 68
2019-06-02 01:00:00 11.1 0 Calma 10 Sur 0 -- -- 64
2019-06-02 00:00:00 12.2 5 Sur 14 Sur 0 -- -- 61
2019-06-01 23:00:00 13.6 6 Sur 24 Sur 0 -- -- 56
2019-06-01 22:00:00 14.6 18 Sur 23 Sur 0 -- -- 56
2019-06-01 21:00:00 17.5 18 Sur 31 Sur 0 -- -- 49
2019-06-01 20:00:00 19.6 21 Sur 35 Sur 0 -- -- 46
2019-06-01 19:00:00 21.7 23 Sur 36 Sur 0 -- -- 43
2019-06-01 18:00:00 22.8 23 Sur 31 Sur 0 -- -- 42
2019-06-01 17:00:00 24.4 22 Sudeste 33 Sudeste 0 -- -- 34
2019-06-01 16:00:00 25 12 Oeste 31 Sudoeste 0 -- -- 29
2019-06-01 15:00:00 24 6 Sur 20 Este 0 -- -- 29
2019-06-01 14:00:00 23.3 6 Sur 15 Sudoeste 0 -- -- 29
2019-06-01 13:00:00 21.9 8 Oeste 19 Sur 0 -- -- 35
2019-06-01 12:00:00 21 10 Sur 17 Sur 0 -- -- 35
2019-06-01 11:00:00 19.5 7 Sur 15 Sur 0 -- -- 42
2019-06-01 10:00:00 17.6 8 Sur 14 Sudeste 0 -- -- 50
2019-06-01 09:00:00 13.6 5 Sur 10 Sudoeste 0 -- -- 64
2019-06-01 08:00:00 8.2 0 Calma 10 Este 0 -- -- 86
2019-06-01 07:00:00 5.9 2 Sur 9 Este 0 -- -- 89
2019-06-01 06:00:00 5.8 0 Calma 13 Este 0 -- -- 89
2019-06-01 05:00:00 6.7 2 Este 8 Este 0 -- -- 87
2019-06-01 04:00:00 7.6 3 Este 8 Este 0 -- -- 86
2019-06-01 03:00:00 8 0 Calma 7 Este 0 -- -- 85
2019-06-01 02:00:00 8.6 0 Calma 6 Sudoeste 0 -- -- 86
2019-06-01 01:00:00 10 0 Calma 5 Este 0 -- -- 80
2019-06-01 00:00:00 11 3 Sudoeste 14 Sur 0 -- -- 78
2019-05-31 23:00:00 12.2 9 Sur 23 Sur 0 -- -- 73
2019-05-31 22:00:00 13.6 16 Sur 26 Sur 0 -- -- 71
2019-05-31 21:00:00 16.7 16 Sur 30 Sur 0 -- -- 59
2019-05-31 20:00:00 18.8 21 Sur 31 Sur 0 -- -- 52
2019-05-31 19:00:00 21.1 23 Sur 36 Sur 0 -- -- 45
2019-05-31 18:00:00 22.8 16 Sur 26 Sur 0 -- -- 40
2019-05-31 17:00:00 23 17 Sur 33 Sur 0 -- -- 35
2019-05-31 16:00:00 23.8 6 Sur 20 Oeste 0 -- -- 34
2019-05-31 15:00:00 23.1 5 Norte 18 Nordeste 0 -- -- 30
2019-05-31 14:00:00 22.3 9 Este 19 Sudeste 0 -- -- 28
2019-05-31 13:00:00 21.3 4 Noroeste 16 Nordeste 0 -- -- 27
2019-05-31 12:00:00 20.7 4 Noroeste 10 Oeste 0 -- -- 32
2019-05-31 11:00:00 19.3 5 Sudoeste 10 Sudoeste 0 -- -- 29
2019-05-31 10:00:00 17.2 2 Este 6 Este 0 -- -- 42
2019-05-31 09:00:00 12.8 2 Nordeste 6 Nordeste 0 -- -- 59
2019-05-31 08:00:00 7.5 4 Nordeste 6 Este 0 -- -- 78
2019-05-31 07:00:00 4.5 3 Nordeste 5 Este 0 -- -- 85
2019-05-31 06:00:00 4.4 4 Este 10 Este 0 -- -- 86
2019-05-31 05:00:00 5 4 Este 6 Este 0 -- -- 83
2019-05-31 04:00:00 5.7 3 Nordeste 8 Sudeste 0 -- -- 81
2019-05-31 03:00:00 6 2 Nordeste 8 Este 0 -- -- 83
2019-05-31 02:00:00 7.1 4 Este 11 Este 0 -- -- 80
2019-05-31 01:00:00 7.6 5 Este 12 Este 0 -- -- 79
2019-05-31 00:00:00 9.8 8 Sudeste 11 Sudeste 0 -- -- 73
2019-05-30 23:00:00 11.8 3 Este 14 Sur 0 -- -- 71
2019-05-30 22:00:00 14.1 15 Sur 22 Sur 0 -- -- 64
2019-05-30 21:00:00 17.8 16 Sur 21 Sur 0 -- -- 52
2019-05-30 20:00:00 20.9 13 Norte 27 Norte 0 -- -- 31
2019-05-30 19:00:00 21.8 14 Norte 23 Noroeste 0 -- -- 34
2019-05-30 18:00:00 22.4 13 Noroeste 22 Nordeste 0 -- -- 31
2019-05-30 17:00:00 22.3 13 Norte 26 Nordeste 0 -- -- 31
2019-05-30 16:00:00 21.7 13 Norte 22 Norte 0 -- -- 32
2019-05-30 15:00:00 20.8 14 Nordeste 27 Noroeste 0 -- -- 33
2019-05-30 14:00:00 20.2 11 Norte 22 Norte 0 -- -- 33
2019-05-30 13:00:00 18.9 10 Nordeste 21 Nordeste 0 -- -- 35
2019-05-30 12:00:00 18.2 10 Nordeste 18 Nordeste 0 -- -- 36
2019-05-30 11:00:00 16.5 9 Norte 17 Nordeste 0 -- -- 42
2019-05-30 10:00:00 14.2 9 Norte 12 Norte 0 -- -- 52
2019-05-30 09:00:00 10.2 5 Nordeste 8 Norte 0 -- -- 71
2019-05-30 08:00:00 5.7 3 Nordeste 7 Este 0 -- -- 84
2019-05-30 07:00:00 2.8 4 Este 8 Este 0 -- -- 93
2019-05-30 06:00:00 3.2 5 Este 11 Este 0 -- -- 90
2019-05-30 05:00:00 3.9 0 Calma 7 Nordeste 0 -- -- 90
2019-05-30 04:00:00 4.5 2 Nordeste 13 Norte 0 -- -- 89
2019-05-30 03:00:00 5 4 Norte 11 Norte 0 -- -- 88
2019-05-30 02:00:00 6.2 6 Norte 14 Nordeste 0 -- -- 83
2019-05-30 01:00:00 6.8 5 Nordeste 14 Norte 0 -- -- 80
2019-05-30 00:00:00 7.8 10 Norte 16 Norte 0 -- -- 77
2019-05-29 23:00:00 9 14 Norte 23 Norte 0 -- -- 72
2019-05-29 22:00:00 10 10 Norte 23 Norte 0 -- -- 68
2019-05-29 21:00:00 12.8 15 Norte 30 Norte 0 -- -- 56
2019-05-29 20:00:00 14.1 21 Norte 32 Norte 0 -- -- 49
2019-05-29 19:00:00 15.7 20 Norte 34 Norte 0 -- -- 42
2019-05-29 18:00:00 15.8 22 Norte 34 Norte 0 -- -- 38
2019-05-29 17:00:00 15.6 19 Norte 34 Norte 0 -- -- 39
2019-05-29 16:00:00 14.8 18 Norte 34 Norte 0 -- -- 43
2019-05-29 15:00:00 14.1 18 Norte 37 Norte 0 -- -- 44
2019-05-29 14:00:00 12.8 22 Norte 39 Norte 0 -- -- 52
2019-05-29 13:00:00 11.8 29 Norte 44 Norte 0 -- -- 48
2019-05-29 12:00:00 10.5 27 Norte 51 Norte 0 -- -- 57
2019-05-29 11:00:00 9.5 33 Norte 53 Noroeste 0 -- -- 56
2019-05-29 10:00:00 7.8 42 Noroeste 54 Noroeste 0 -- -- 65
2019-05-29 09:00:00 6.5 26 Norte 49 Norte 0 -- -- 66
2019-05-29 08:00:00 4.8 15 Norte 28 Noroeste 0 -- -- 77
2019-05-29 07:00:00 3.6 16 Norte 28 Norte 0 -- -- 84
2019-05-29 06:00:00 2.6 15 Nordeste 25 Nordeste 0 -- -- 89
2019-05-29 05:00:00 3.2 14 Norte 29 Norte 0 -- -- 84
2019-05-29 04:00:00 3.7 17 Norte 31 Norte 0 -- -- 80
2019-05-29 03:00:00 4.3 22 Noroeste 34 Norte 0 -- -- 74
2019-05-29 02:00:00 4.5 16 Norte 25 Noroeste 0 -- -- 79
2019-05-29 01:00:00 5 14 Norte 30 Norte 0 -- -- 78
2019-05-29 00:00:00 5.3 9 Norte 28 Norte 0 -- -- 79
2019-05-28 23:00:00 6.6 12 Norte 24 Noroeste 0 -- -- 76
2019-05-28 22:00:00 7.9 14 Norte 28 Norte 0 -- -- 74
2019-05-28 21:00:00 10.4 20 Norte 37 Noroeste 0 -- -- 62
2019-05-28 20:00:00 12.5 23 Norte 41 Norte 0 -- -- 54
2019-05-28 19:00:00 14.6 24 Norte 45 Noroeste 0 -- -- 50
2019-05-28 18:00:00 15.7 22 Noroeste 37 Noroeste 0 -- -- 42
2019-05-28 17:00:00 15.7 20 Noroeste 37 Noroeste 0 -- -- 38
2019-05-28 16:00:00 15.7 21 Noroeste 33 Oeste 0 -- -- 38
2019-05-28 15:00:00 15.6 17 Noroeste 33 Noroeste 0 -- -- 41
2019-05-28 14:00:00 15.2 18 Noroeste 33 Norte 0 -- -- 36
2019-05-28 13:00:00 13.2 18 Norte 31 Noroeste 0 -- -- 52
2019-05-28 12:00:00 11.4 21 Norte 32 Norte 0 -- -- 52
2019-05-28 11:00:00 10.2 17 Norte 34 Norte 0 -- -- 51
2019-05-28 10:00:00 8.3 22 Norte 32 Norte 0 -- -- 62
2019-05-28 09:00:00 7.1 18 Norte 32 Norte 0 -- -- 77
2019-05-28 08:00:00 6.1 7 Nordeste 14 Norte 0 -- -- 83
2019-05-28 07:00:00 5.2 9 Norte 16 Norte 0 -- -- 96
2019-05-28 06:00:00 5.1 7 Norte 12 Norte 0 -- -- 95
2019-05-28 05:00:00 5.8 4 Norte 9 Norte 0 -- -- 92
2019-05-28 04:00:00 6.3 4 Norte 12 Norte 0 -- -- 92
2019-05-28 03:00:00 7.5 6 Nordeste 16 Norte 0 -- -- 91
2019-05-28 02:00:00 8.7 8 Norte 21 Norte 0 -- -- 90
2019-05-28 01:00:00 8.7 9 Nordeste 21 Norte 0 -- -- 91
2019-05-28 00:00:00 9.4 10 Norte 18 Nordeste 0 -- -- 86
2019-05-27 23:00:00 10.2 9 Nordeste 28 Norte 0 -- -- 81
2019-05-27 22:00:00 11.5 12 Norte 25 Norte 0 -- -- 75
2019-05-27 21:00:00 14.1 16 Norte 39 Norte 0 -- -- 65
2019-05-27 20:00:00 16.1 22 Norte 35 Norte 0 -- -- 58
2019-05-27 19:00:00 17.6 18 Norte 30 Norte 0 -- -- 48
2019-05-27 18:00:00 19.2 18 Norte 35 Norte 0 -- -- 44
2019-05-27 17:00:00 19.9 20 Noroeste 37 Oeste 0 -- -- 39
2019-05-27 16:00:00 19.8 15 Noroeste 36 Noroeste 0 -- -- 40
2019-05-27 15:00:00 18.6 14 Noroeste 32 Noroeste 0 -- -- 44
2019-05-27 14:00:00 18.3 18 Noroeste 32 Oeste 0 -- -- 46
2019-05-27 13:00:00 17.6 19 Noroeste 34 Noroeste 0 -- -- 47
2019-05-27 12:00:00 16 20 Noroeste 33 Norte 0 -- -- 54
2019-05-27 11:00:00 13.8 18 Norte 27 Nordeste 0 -- -- 65
2019-05-27 10:00:00 11.8 17 Norte 26 Nordeste 0 -- -- 70
2019-05-27 09:00:00 9.8 14 Norte 23 Norte 0 -- -- 79
2019-05-27 08:00:00 7.5 13 Norte 21 Nordeste 0 -- -- 89
2019-05-27 07:00:00 4.2 6 Nordeste 11 Norte 0 -- -- 96
2019-05-27 06:00:00 3.9 7 Nordeste 10 Nordeste 0 -- -- 95
2019-05-27 05:00:00 4.4 7 Nordeste 13 Norte 0 -- -- 93
2019-05-27 04:00:00 4.6 5 Norte 10 Norte 0 -- -- 93
2019-05-27 03:00:00 5.2 5 Norte 12 Nordeste 0 -- -- 92
2019-05-27 02:00:00 5.9 6 Norte 14 Norte 0 -- -- 90
2019-05-27 01:00:00 6.9 8 Norte 15 Norte 0 -- -- 88
2019-05-27 00:00:00 7.4 5 Nordeste 12 Este 0 -- -- 88
2019-05-26 23:00:00 8.1 9 Nordeste 18 Norte 0 -- -- 85
2019-05-26 22:00:00 9.6 9 Norte 24 Norte 0 -- -- 78
2019-05-26 21:00:00 12.4 18 Norte 31 Norte 0 -- -- 64
2019-05-26 20:00:00 14.1 20 Norte 33 Norte 0 -- -- 57
2019-05-26 19:00:00 14.9 17 Norte 33 Noroeste 0 -- -- 54
2019-05-26 18:00:00 15.2 18 Norte 30 Norte 0 -- -- 51
2019-05-26 17:00:00 14.9 18 Norte 31 Norte 0 -- -- 57
2019-05-26 16:00:00 14 22 Norte 32 Norte 0 -- -- 59
2019-05-26 15:00:00 14.1 19 Norte 32 Noroeste 0 -- -- 59
2019-05-26 14:00:00 12.5 20 Norte 31 Norte 0 -- -- 66
2019-05-26 13:00:00 11.2 17 Norte 32 Norte 0 -- -- 70
2019-05-26 12:00:00 8.7 21 Norte 31 Nordeste 0 -- -- 76
2019-05-26 11:00:00 6.4 17 Norte 29 Nordeste 0 -- -- 85
2019-05-26 10:00:00 5.2 17 Norte 29 Norte 0 -- -- 90
2019-05-26 09:00:00 4.9 16 Norte 25 Norte 0 -- -- 90
2019-05-26 08:00:00 4.6 15 Norte 23 Norte 0 -- -- 91
2019-05-26 07:00:00 4.6 16 Norte 24 Norte 0 -- -- 93
2019-05-26 06:00:00 4.7 16 Norte 25 Nordeste 0 -- -- 94
2019-05-26 05:00:00 4.8 13 Norte 27 Norte 0 -- -- 94
2019-05-26 04:00:00 4.3 10 Norte 22 Norte 0 -- -- 95
2019-05-26 03:00:00 5.5 17 Norte 24 Norte 0 -- -- 92
2019-05-26 02:00:00 5.6 8 Norte 15 Norte 0 -- -- 95
2019-05-26 01:00:00 5.8 7 Norte 21 Nordeste 0 -- -- 94
2019-05-26 00:00:00 6.5 12 Este 18 Este 0 -- -- 94
2019-05-25 23:00:00 7.7 13 Norte 26 Norte 0 -- -- 89
2019-05-25 22:00:00 8.9 14 Norte 27 Norte 0 -- -- 84
2019-05-25 21:00:00 11.5 14 Norte 27 Norte 0 -- -- 71
2019-05-25 20:00:00 13.1 20 Norte 30 Norte 0 -- -- 67
2019-05-25 19:00:00 12.9 19 Norte 33 Norte 0 -- -- 66
2019-05-25 18:00:00 14.3 19 Norte 31 Norte 0 -- -- 61
2019-05-25 17:00:00 13.9 19 Noroeste 34 Noroeste 0 -- -- 62
2019-05-25 16:00:00 12.7 19 Norte 31 Norte 0 -- -- 66
2019-05-25 15:00:00 12.1 20 Norte 29 Norte 0 -- -- 69
2019-05-25 14:00:00 11.4 17 Norte 31 Norte 0 -- -- 73
2019-05-25 13:00:00 9.9 23 Norte 34 Norte 0 -- -- 78
2019-05-25 12:00:00 8 19 Norte 32 Norte 0 -- -- 86
2019-05-25 11:00:00 6.9 20 Norte 37 Noroeste 0 -- -- 91
2019-05-25 10:00:00 6.3 21 Norte 43 Norte 0 -- -- 93
2019-05-25 09:00:00 5.9 22 Noroeste 37 Noroeste 0 -- -- 95
2019-05-25 08:00:00 5.9 19 Noroeste 31 Norte 0 -- -- 95
2019-05-25 07:00:00 5.7 22 Noroeste 34 Norte 0 -- -- 96
2019-05-25 06:00:00 5.9 22 Noroeste 39 Noroeste 0 -- -- 95
2019-05-25 05:00:00 6 22 Norte 36 Noroeste 0 -- -- 96
2019-05-25 04:00:00 6.1 23 Norte 37 Noroeste 0 -- -- 97
2019-05-25 03:00:00 6.4 19 Norte 39 Norte 0 -- -- 97
2019-05-25 02:00:00 6.6 23 Norte 37 Norte 0 -- -- 96
2019-05-25 01:00:00 6.8 21 Noroeste 34 Noroeste 0 -- -- 95
2019-05-25 00:00:00 7.1 19 Noroeste 37 Norte 0 -- -- 93